createdAt,value
2022-09-20T00:01:46.548Z,69.04
2022-09-20T00:04:14.096Z,69.15
2022-09-20T00:06:41.594Z,69.33
2022-09-20T00:09:09.109Z,69.50
2022-09-20T00:11:37.737Z,70.28
2022-09-20T00:14:08.596Z,68.90
2022-09-20T00:16:41.170Z,70.33
2022-09-20T00:19:10.230Z,70.02
2022-09-20T00:21:37.837Z,70.40
2022-09-20T00:24:06.422Z,70.75
2022-09-20T00:26:34.191Z,70.61
2022-09-20T00:29:01.781Z,69.10
2022-09-20T00:31:29.320Z,69.18
2022-09-20T00:34:17.162Z,69.31
2022-09-20T00:36:45.509Z,69.95
2022-09-20T00:39:15.045Z,70.13
2022-09-20T00:41:42.730Z,69.22
2022-09-20T00:44:45.886Z,68.99
2022-09-20T00:47:18.482Z,69.92
2022-09-20T00:49:47.767Z,69.23
2022-09-20T00:52:16.864Z,68.40
2022-09-20T00:54:44.568Z,67.37
2022-09-20T00:57:12.117Z,67.45
2022-09-20T00:59:42.856Z,68.17
2022-09-20T01:02:16.868Z,67.38
2022-09-20T01:04:47.213Z,67.90
2022-09-20T01:07:22.137Z,69.22
2022-09-20T01:09:50.412Z,68.83
2022-09-20T01:12:21.381Z,68.96
2022-09-20T01:14:51.905Z,67.95
2022-09-20T01:17:23.363Z,68.93
2022-09-20T01:20:01.364Z,69.74
2022-09-20T01:22:42.529Z,69.53
2022-09-20T01:25:16.187Z,70.79
2022-09-20T01:27:48.190Z,69.29
2022-09-20T01:30:19.882Z,69.86
2022-09-20T01:33:01.340Z,69.94
2022-09-20T01:35:30.058Z,70.39
2022-09-20T01:38:21.781Z,71.11
2022-09-20T01:41:07.496Z,70.98
2022-09-20T01:43:41.875Z,71.33
2022-09-20T01:46:22.776Z,70.47
2022-09-20T01:48:52.780Z,71.16
2022-09-20T01:51:43.292Z,72.06
2022-09-20T01:54:31.385Z,70.63
2022-09-20T01:57:35.006Z,70.28
2022-09-20T02:00:13.999Z,70.42
2022-09-20T02:03:13.566Z,71.37
2022-09-20T02:06:08.698Z,70.71
2022-09-20T02:09:18.676Z,69.56
2022-09-20T02:11:56.503Z,70.03
2022-09-20T02:14:35.729Z,70.63
2022-09-20T02:17:14.704Z,70.30
2022-09-20T02:19:59.862Z,70.45
2022-09-20T02:22:41.163Z,70.96
2022-09-20T02:25:36.896Z,70.84
2022-09-20T02:28:21.429Z,70.57
2022-09-20T02:30:56.705Z,70.06
2022-09-20T02:33:35.725Z,70.54
2022-09-20T02:36:22.793Z,71.35
2022-09-20T02:39:00.222Z,71.18
2022-09-20T02:41:52.576Z,70.72
2022-09-20T02:44:30.304Z,70.38
2022-09-20T02:47:07.844Z,69.41
2022-09-20T02:49:48.917Z,70.08
2022-09-20T02:52:26.991Z,68.99
2022-09-20T02:55:04.361Z,68.95
2022-09-20T02:57:46.873Z,69.64
2022-09-20T03:00:20.623Z,68.88
2022-09-20T03:03:00.453Z,69.29
2022-09-20T03:05:38.195Z,68.40
2022-09-20T03:08:17.913Z,68.93
2022-09-20T03:10:53.958Z,68.73
2022-09-20T03:13:32.997Z,69.15
2022-09-20T03:16:12.284Z,70.32
2022-09-20T03:18:52.243Z,69.60
2022-09-20T03:21:35.884Z,67.90
2022-09-20T03:24:13.121Z,68.83
2022-09-20T03:26:51.965Z,68.54
2022-09-20T03:29:36.158Z,67.64
2022-09-20T03:32:16.296Z,68.40
2022-09-20T03:34:53.687Z,67.98
2022-09-20T03:37:43.292Z,67.83
2022-09-20T03:40:46.426Z,68.03
2022-09-20T03:43:25.635Z,67.78
2022-09-20T03:46:05.135Z,67.29
2022-09-20T03:48:57.049Z,68.16
2022-09-20T03:51:33.739Z,67.66
2022-09-20T03:54:35.685Z,67.32
2022-09-20T03:57:21.587Z,68.26
2022-09-20T04:00:04.589Z,67.99
2022-09-20T04:02:41.200Z,69.28
2022-09-20T04:05:13.379Z,69.62
2022-09-20T04:07:52.995Z,69.85
2022-09-20T04:10:34.746Z,69.47
2022-09-20T04:13:17.113Z,69.33
2022-09-20T04:15:52.607Z,69.28
2022-09-20T04:18:31.631Z,70.14
2022-09-20T04:21:05.506Z,68.93
2022-09-20T04:23:41.493Z,70.06
2022-09-20T04:26:10.720Z,67.94
2022-09-20T04:28:44.205Z,68.85
2022-09-20T04:31:22.182Z,68.38
2022-09-20T04:33:52.610Z,69.00
2022-09-20T04:36:35.760Z,68.28
2022-09-20T04:39:18.059Z,68.85
2022-09-20T04:42:27.950Z,68.92
2022-09-20T04:45:37.772Z,70.32
2022-09-20T04:48:45.206Z,70.84
2022-09-20T04:51:38.276Z,71.00
2022-09-20T04:54:38.760Z,71.77
2022-09-20T04:57:25.555Z,71.17
2022-09-20T05:00:04.967Z,71.90
2022-09-20T05:03:03.258Z,71.81
2022-09-20T05:06:03.030Z,72.24
2022-09-20T05:09:07.887Z,72.80
2022-09-20T05:11:57.939Z,72.56
2022-09-20T05:14:45.567Z,73.27
2022-09-20T05:17:25.353Z,72.73
2022-09-20T05:20:24.177Z,72.52
2022-09-20T05:23:13.908Z,72.08
2022-09-20T05:25:59.637Z,71.85
2022-09-20T05:28:35.476Z,72.95
2022-09-20T05:31:10.817Z,71.73
2022-09-20T05:33:48.251Z,71.22
2022-09-20T05:36:24.551Z,71.70
2022-09-20T05:39:03.485Z,70.74
2022-09-20T05:41:40.396Z,70.69
2022-09-20T05:44:20.935Z,70.11
2022-09-20T05:47:00.057Z,71.28
2022-09-20T05:49:48.074Z,70.62
2022-09-20T05:52:32.720Z,70.98
2022-09-20T05:55:43.214Z,70.37
2022-09-20T05:58:34.341Z,69.15
2022-09-20T06:01:08.178Z,69.34
2022-09-20T06:03:41.019Z,70.54
2022-09-20T06:06:15.441Z,71.36
2022-09-20T06:08:58.153Z,72.02
2022-09-20T06:11:47.116Z,72.40
2022-09-20T06:14:32.733Z,73.33
2022-09-20T06:17:03.658Z,72.24
2022-09-20T06:19:40.194Z,71.13
2022-09-20T06:22:19.178Z,71.38
2022-09-20T06:24:50.079Z,72.18
2022-09-20T06:27:22.040Z,72.78
2022-09-20T06:29:54.354Z,73.56
2022-09-20T06:32:21.948Z,72.99
2022-09-20T06:34:49.947Z,71.95
2022-09-20T06:37:51.040Z,72.77
2022-09-20T06:40:52.348Z,71.85
2022-09-20T06:43:19.875Z,71.78
2022-09-20T06:45:48.994Z,72.35
2022-09-20T06:48:16.693Z,72.78
2022-09-20T06:50:45.238Z,72.86
2022-09-20T06:53:18.124Z,73.63
2022-09-20T06:55:47.134Z,72.64
2022-09-20T06:58:15.240Z,72.51
2022-09-20T07:01:57.465Z,72.37
2022-09-20T07:04:26.574Z,73.50
2022-09-20T07:07:00.207Z,73.00
2022-09-20T07:09:27.988Z,70.86
2022-09-20T07:11:58.973Z,70.67
2022-09-20T07:14:27.262Z,70.96
2022-09-20T07:16:55.087Z,71.70
2022-09-20T07:19:23.235Z,72.36
2022-09-20T07:21:52.121Z,70.84
2022-09-20T07:24:19.980Z,70.83
2022-09-20T07:26:55.853Z,70.44
2022-09-20T07:29:23.420Z,70.87
2022-09-20T07:31:51.192Z,70.61
2022-09-20T07:34:20.302Z,70.50
2022-09-20T07:36:47.872Z,71.12
2022-09-20T07:39:17.892Z,71.06
2022-09-20T07:41:46.492Z,71.46
2022-09-20T07:44:24.795Z,71.83
2022-09-20T07:46:54.097Z,71.85
2022-09-20T07:49:22.497Z,70.99
2022-09-20T07:51:50.812Z,72.65
2022-09-20T07:54:19.799Z,72.86
2022-09-20T07:56:47.821Z,72.44
2022-09-20T07:59:16.192Z,73.32
2022-09-20T08:01:44.149Z,74.28
2022-09-20T08:04:12.175Z,73.31
2022-09-20T08:06:41.286Z,73.21
2022-09-20T08:09:11.286Z,73.08
2022-09-20T08:11:42.055Z,73.55
2022-09-20T08:14:14.184Z,72.86
2022-09-20T08:16:43.754Z,71.40
2022-09-20T08:19:17.227Z,72.28
2022-09-20T08:21:44.811Z,71.37
2022-09-20T08:24:12.882Z,70.24
2022-09-20T08:26:41.785Z,69.69
2022-09-20T08:29:09.396Z,69.27
2022-09-20T08:31:42.064Z,71.34
2022-09-20T08:34:11.227Z,71.08
2022-09-20T08:36:42.015Z,71.83
2022-09-20T08:42:10.062Z,71.70
2022-09-20T08:44:47.822Z,71.08
2022-09-20T08:47:20.194Z,69.69
2022-09-20T08:49:48.140Z,68.76
2022-09-20T08:52:19.014Z,67.57
2022-09-20T08:54:47.399Z,67.20
2022-09-20T08:57:19.329Z,67.80
2022-09-20T08:59:47.334Z,68.80
2022-09-20T09:02:17.699Z,68.53
2022-09-20T09:04:48.272Z,68.46
2022-09-20T09:07:19.696Z,68.14
2022-09-20T09:09:47.781Z,68.68
2022-09-20T09:12:22.098Z,67.88
2022-09-20T09:14:55.806Z,66.98
2022-09-20T09:17:28.431Z,65.79
2022-09-20T09:19:57.458Z,66.81
2022-09-20T09:22:32.712Z,66.30
2022-09-20T09:25:20.176Z,65.71
2022-09-20T09:27:57.228Z,65.31
2022-09-20T09:30:28.785Z,65.92
2022-09-20T09:33:25.130Z,64.59
2022-09-20T09:35:55.633Z,65.74
2022-09-20T09:38:25.263Z,66.27
2022-09-20T09:40:54.790Z,66.49
2022-09-20T09:43:27.186Z,65.24
2022-09-20T09:45:55.197Z,65.77
2022-09-20T09:48:26.838Z,65.92
2022-09-20T09:51:10.625Z,65.62
2022-09-20T09:53:39.153Z,64.51
2022-09-20T09:56:22.042Z,63.41
2022-09-20T09:59:22.893Z,63.71
2022-09-20T10:02:00.234Z,63.65
2022-09-20T10:04:36.744Z,64.12
2022-09-20T10:07:10.476Z,63.33
2022-09-20T10:09:55.695Z,63.25
2022-09-20T10:12:38.307Z,62.74
2022-09-20T10:15:22.941Z,63.18
2022-09-20T10:18:05.523Z,63.75
2022-09-20T10:20:45.997Z,63.70
2022-09-20T10:24:03.244Z,63.57
2022-09-20T10:26:39.811Z,63.08
2022-09-20T10:29:21.746Z,63.76
2022-09-20T10:31:58.425Z,65.38
2022-09-20T10:35:09.223Z,64.78
2022-09-20T10:37:49.444Z,64.91
2022-09-20T10:40:48.177Z,64.94
2022-09-20T10:43:23.685Z,65.16
2022-09-20T10:46:27.929Z,64.96
2022-09-20T10:48:59.831Z,63.27
2022-09-20T10:51:35.221Z,63.53
2022-09-20T10:54:11.120Z,64.54
2022-09-20T10:56:44.913Z,64.28
2022-09-20T10:59:32.459Z,63.25
2022-09-20T11:02:15.135Z,63.44
2022-09-20T11:05:09.211Z,63.51
2022-09-20T11:07:52.457Z,62.43
2022-09-20T11:10:24.206Z,62.39
2022-09-20T11:12:57.094Z,62.54
2022-09-20T11:15:28.939Z,61.62
2022-09-20T11:18:05.378Z,61.77
2022-09-20T11:20:44.044Z,61.02
2022-09-20T11:23:17.437Z,62.03
2022-09-20T11:25:51.625Z,61.51
2022-09-20T11:28:25.740Z,61.42
2022-09-20T11:31:00.981Z,60.89
2022-09-20T11:33:32.545Z,60.05
2022-09-20T11:36:04.136Z,60.35
2022-09-20T11:38:38.210Z,59.01
2022-09-20T11:41:14.360Z,59.05
2022-09-20T11:43:44.312Z,58.88
2022-09-20T11:46:14.907Z,58.59
2022-09-20T11:48:48.902Z,58.66
2022-09-20T11:51:35.717Z,57.12
2022-09-20T11:54:28.141Z,56.97
2022-09-20T11:56:57.995Z,56.42
2022-09-20T11:59:33.300Z,56.89
2022-09-20T12:02:04.213Z,56.38
2022-09-20T12:04:36.229Z,56.70
2022-09-20T12:07:11.538Z,56.64
2022-09-20T12:09:44.993Z,55.56
2022-09-20T12:12:20.086Z,56.81
2022-09-20T12:14:54.353Z,57.07
2022-09-20T12:17:59.239Z,56.75
2022-09-20T12:21:06.009Z,56.83
2022-09-20T12:24:17.465Z,57.20
2022-09-20T12:26:46.894Z,58.28
2022-09-20T12:29:55.267Z,57.44
2022-09-20T12:32:54.985Z,57.62
2022-09-20T12:35:55.822Z,57.27
2022-09-20T12:38:39.274Z,57.77
2022-09-20T12:41:14.317Z,57.49
2022-09-20T12:43:53.827Z,57.16
2022-09-20T12:46:30.695Z,56.23
2022-09-20T12:49:37.177Z,56.78
2022-09-20T12:52:22.699Z,56.98
2022-09-20T12:54:56.376Z,57.26
2022-09-20T12:57:33.108Z,57.67
2022-09-20T13:00:03.201Z,56.99
2022-09-20T13:03:00.195Z,56.45
2022-09-20T13:05:38.002Z,56.72
2022-09-20T13:08:16.984Z,55.52
2022-09-20T13:10:49.922Z,56.41
2022-09-20T13:13:31.513Z,54.50
2022-09-20T13:16:01.159Z,55.33
2022-09-20T13:18:30.329Z,55.42
2022-09-20T13:21:00.247Z,55.63
2022-09-20T13:23:34.031Z,55.23
2022-09-20T13:26:03.870Z,53.87
2022-09-20T13:28:38.476Z,54.27
2022-09-20T13:31:35.521Z,52.44
2022-09-20T13:34:23.786Z,53.07
2022-09-20T13:36:56.498Z,50.49
2022-09-20T13:39:29.142Z,51.60
2022-09-20T13:42:02.311Z,52.63
2022-09-20T13:44:34.288Z,50.77
2022-09-20T13:47:02.483Z,53.13
2022-09-20T13:49:33.006Z,52.73
2022-09-20T13:52:12.459Z,52.01
2022-09-20T13:54:39.957Z,52.53
2022-09-20T13:57:19.846Z,53.31
2022-09-20T13:59:49.524Z,53.42
2022-09-20T14:02:23.536Z,52.85
2022-09-20T14:04:54.455Z,53.11
2022-09-20T14:07:25.717Z,53.14
2022-09-20T14:09:54.030Z,53.80
2022-09-20T14:12:23.655Z,53.44
2022-09-20T14:14:53.676Z,54.00
2022-09-20T14:17:24.480Z,53.29
2022-09-20T14:19:54.639Z,53.62
2022-09-20T14:22:25.231Z,52.35
2022-09-20T14:25:01.572Z,51.77
2022-09-20T14:27:31.109Z,53.63
2022-09-20T14:30:00.080Z,53.47
2022-09-20T14:32:44.760Z,53.73
2022-09-20T14:35:18.294Z,51.87
2022-09-20T14:37:49.204Z,51.71
2022-09-20T14:40:25.267Z,51.94
2022-09-20T14:43:04.175Z,52.68
2022-09-20T14:45:35.112Z,53.77
2022-09-20T14:48:10.290Z,52.41
2022-09-20T14:50:40.496Z,52.44
2022-09-20T14:53:24.843Z,53.28
2022-09-20T14:56:10.204Z,52.04
2022-09-20T14:59:03.782Z,53.47
2022-09-20T15:01:33.692Z,52.91
2022-09-20T15:04:08.183Z,52.32
2022-09-20T15:06:36.891Z,52.53
2022-09-20T15:09:04.666Z,51.81
2022-09-20T15:11:32.665Z,51.93
2022-09-20T15:14:00.153Z,52.85
2022-09-20T15:16:29.506Z,53.08
2022-09-20T15:18:58.415Z,52.88
2022-09-20T15:21:26.007Z,52.15
2022-09-20T15:23:53.902Z,52.42
2022-09-20T15:26:22.227Z,53.96
2022-09-20T15:28:50.284Z,53.31
2022-09-20T15:31:19.826Z,53.61
2022-09-20T15:33:47.361Z,53.56
2022-09-20T15:36:16.207Z,54.11
2022-09-20T15:38:43.713Z,52.53
2022-09-20T15:41:11.402Z,54.10
2022-09-20T15:43:43.108Z,52.77
2022-09-20T15:46:19.556Z,52.32
2022-09-20T15:48:47.504Z,52.33
2022-09-20T15:51:16.620Z,52.48
2022-09-20T15:53:45.605Z,52.90
2022-09-20T15:56:19.282Z,52.37
2022-09-20T15:58:48.238Z,52.12
2022-09-20T16:01:16.701Z,52.46
2022-09-20T16:03:46.040Z,52.09
2022-09-20T16:06:14.739Z,52.23
2022-09-20T16:08:44.205Z,52.41
2022-09-20T16:11:20.449Z,52.86
2022-09-20T16:13:54.517Z,52.04
2022-09-20T16:16:22.657Z,53.92
2022-09-20T16:19:07.785Z,52.89
2022-09-20T16:21:36.209Z,53.20
2022-09-20T16:24:05.969Z,53.07
2022-09-20T16:26:34.396Z,53.52
2022-09-20T16:29:04.470Z,53.16
2022-09-20T16:31:36.474Z,53.52
2022-09-20T16:34:05.758Z,54.41
2022-09-20T16:36:34.013Z,55.75
2022-09-20T16:39:01.509Z,57.46
2022-09-20T16:41:31.925Z,56.96
2022-09-20T16:43:59.410Z,56.82
2022-09-20T16:46:27.497Z,57.59
2022-09-20T16:48:56.624Z,57.93
2022-09-20T16:51:26.036Z,57.07
2022-09-20T16:53:55.884Z,59.37
2022-09-20T16:56:25.100Z,58.67
2022-09-20T16:58:55.100Z,58.58
2022-09-20T17:01:23.093Z,57.51
2022-09-20T17:03:51.358Z,58.55
2022-09-20T17:06:19.177Z,58.19
2022-09-20T17:08:48.584Z,59.46
2022-09-20T17:11:17.760Z,59.56
2022-09-20T17:13:47.125Z,59.75
2022-09-20T17:16:18.400Z,59.10
2022-09-20T17:18:46.117Z,58.76
2022-09-20T17:21:15.248Z,58.85
2022-09-20T17:23:47.561Z,59.50
2022-09-20T17:26:23.080Z,59.80
2022-09-20T17:28:53.251Z,59.35
2022-09-20T17:31:24.081Z,60.38
2022-09-20T17:33:52.616Z,60.25
2022-09-20T17:36:21.302Z,61.31
2022-09-20T17:38:53.711Z,61.55
2022-09-20T17:41:22.233Z,61.75
2022-09-20T17:43:54.619Z,62.49
2022-09-20T17:46:25.584Z,62.13
2022-09-20T17:48:55.576Z,62.94
2022-09-20T17:51:25.875Z,63.44
2022-09-20T17:53:55.634Z,62.41
2022-09-20T17:56:28.296Z,61.90
2022-09-20T17:58:56.602Z,61.35
2022-09-20T18:01:27.293Z,61.77
2022-09-20T18:03:57.145Z,61.47
2022-09-20T18:06:26.558Z,61.58
2022-09-20T18:08:55.850Z,60.41
2022-09-20T18:11:27.513Z,61.25
2022-09-20T18:13:55.277Z,61.42
2022-09-20T18:16:23.845Z,61.31
2022-09-20T18:18:52.811Z,61.44
2022-09-20T18:21:21.894Z,61.71
2022-09-20T18:23:50.429Z,60.29
2022-09-20T18:26:25.515Z,61.10
2022-09-20T18:28:58.083Z,61.26
2022-09-20T18:31:28.236Z,61.21
2022-09-20T18:33:59.665Z,62.30
2022-09-20T18:36:27.784Z,62.09
2022-09-20T18:38:56.486Z,61.93
2022-09-20T18:41:25.832Z,62.74
2022-09-20T18:43:54.884Z,62.82
2022-09-20T18:46:24.686Z,63.64
2022-09-20T18:48:53.593Z,63.42
2022-09-20T18:51:24.245Z,63.55
2022-09-20T18:53:52.706Z,63.50
2022-09-20T18:56:25.738Z,63.34
2022-09-20T18:58:54.705Z,63.60
2022-09-20T19:01:55.812Z,63.73
2022-09-20T19:04:35.435Z,63.77
2022-09-20T19:07:13.792Z,64.03
2022-09-20T19:09:47.100Z,64.22
2022-09-20T19:12:21.687Z,64.28
2022-09-20T19:15:09.752Z,63.86
2022-09-20T19:17:52.969Z,63.78
2022-09-20T19:20:29.242Z,64.06
2022-09-20T19:23:07.944Z,64.39
2022-09-20T19:25:43.949Z,64.67
2022-09-20T19:28:13.381Z,64.85
2022-09-20T19:30:42.343Z,64.92
2022-09-20T19:33:17.533Z,64.74
2022-09-20T19:35:49.454Z,64.36
2022-09-20T19:38:34.258Z,64.52
2022-09-20T19:41:14.193Z,64.67
2022-09-20T19:44:04.293Z,64.38
2022-09-20T19:46:45.967Z,64.17
2022-09-20T19:49:16.230Z,64.06
2022-09-20T19:51:45.433Z,64.53
2022-09-20T19:54:15.874Z,64.60
2022-09-20T19:56:52.762Z,64.63
2022-09-20T19:59:21.413Z,65.05
2022-09-20T20:01:49.744Z,64.81
2022-09-20T20:04:17.824Z,64.14
2022-09-20T20:06:54.491Z,64.08
2022-09-20T20:09:31.337Z,63.93
2022-09-20T20:12:07.768Z,62.90
2022-09-20T20:14:45.523Z,63.47
2022-09-20T20:17:31.991Z,63.42
2022-09-20T20:20:18.686Z,63.47
2022-09-20T20:23:27.862Z,63.77
2022-09-20T20:26:03.010Z,63.85
2022-09-20T20:28:30.886Z,63.03
2022-09-20T20:31:00.702Z,64.30
2022-09-20T20:33:28.373Z,64.32
2022-09-20T20:35:56.962Z,65.07
2022-09-20T20:38:26.182Z,64.89
2022-09-20T20:41:04.486Z,64.77
2022-09-20T20:43:32.268Z,65.40
2022-09-20T20:45:59.842Z,65.79
2022-09-20T20:48:27.388Z,66.30
2022-09-20T20:51:02.559Z,66.42
2022-09-20T20:53:34.122Z,65.83
2022-09-20T20:56:07.123Z,66.49
2022-09-20T20:58:36.251Z,65.91
2022-09-20T21:01:09.099Z,65.24
2022-09-20T21:03:36.898Z,65.17
2022-09-20T21:06:05.387Z,65.68
2022-09-20T21:08:34.187Z,65.55
2022-09-20T21:11:05.110Z,65.46
2022-09-20T21:13:33.035Z,65.08
2022-09-20T21:16:05.658Z,65.45
2022-09-20T21:18:33.660Z,64.97
2022-09-20T21:21:02.447Z,65.46
2022-09-20T21:23:30.301Z,65.48
2022-09-20T21:26:02.772Z,65.78
2022-09-20T21:28:31.626Z,66.04
2022-09-20T21:31:02.866Z,65.77
2022-09-20T21:33:33.701Z,64.87
2022-09-20T21:36:02.443Z,65.34
2022-09-20T21:38:33.173Z,64.99
2022-09-20T21:41:05.886Z,64.68
2022-09-20T21:43:35.078Z,64.29
2022-09-20T21:46:02.993Z,65.28
2022-09-20T21:48:30.905Z,64.53
2022-09-20T21:51:03.448Z,64.06
2022-09-20T21:53:30.944Z,64.32
2022-09-20T21:55:59.287Z,65.56
2022-09-20T21:58:27.380Z,65.01
2022-09-20T22:01:05.659Z,64.75
2022-09-20T22:03:34.983Z,65.57
2022-09-20T22:06:11.056Z,65.71
2022-09-20T22:08:40.173Z,66.06
2022-09-20T22:11:12.193Z,65.41
2022-09-20T22:13:42.361Z,65.79
2022-09-20T22:16:13.374Z,65.39
2022-09-20T22:18:42.822Z,65.54
2022-09-20T22:21:12.176Z,64.47
2022-09-20T22:23:39.824Z,64.64
2022-09-20T22:26:10.283Z,65.56
2022-09-20T22:28:38.503Z,65.97
2022-09-20T22:31:08.147Z,65.25
2022-09-20T22:33:40.791Z,64.78
2022-09-20T22:36:09.368Z,64.76
2022-09-20T22:38:37.102Z,65.19
2022-09-20T22:41:04.818Z,65.51
2022-09-20T22:43:33.057Z,65.55
2022-09-20T22:46:04.418Z,65.89
2022-09-20T22:48:32.675Z,65.31
2022-09-20T22:51:02.612Z,65.25
2022-09-20T22:53:31.397Z,65.88
2022-09-20T22:56:06.694Z,65.45
2022-09-20T22:58:35.219Z,66.11
2022-09-20T23:01:07.676Z,66.18
2022-09-20T23:03:35.892Z,66.08
2022-09-20T23:06:05.262Z,65.44
2022-09-20T23:08:33.595Z,66.57
2022-09-20T23:11:02.586Z,66.54
2022-09-20T23:13:30.246Z,67.03
2022-09-20T23:15:57.791Z,67.08
2022-09-20T23:18:25.596Z,66.27
2022-09-20T23:21:02.727Z,66.39
2022-09-20T23:23:32.687Z,65.68
2022-09-20T23:26:07.332Z,65.56
2022-09-20T23:28:35.189Z,66.85
2022-09-20T23:31:04.705Z,66.04
2022-09-20T23:33:32.886Z,66.41
2022-09-20T23:36:00.714Z,65.79
2022-09-20T23:38:28.294Z,65.00
2022-09-20T23:40:57.519Z,65.56
2022-09-20T23:43:25.038Z,64.92
2022-09-20T23:45:52.958Z,65.74
2022-09-20T23:48:20.517Z,65.26
2022-09-20T23:50:48.031Z,65.48
2022-09-20T23:53:15.583Z,64.78
2022-09-20T23:55:43.622Z,65.54
2022-09-20T23:58:12.562Z,65.06
